^^
MeteoGriva-Weather Station Historical Data
Daily Summary for October 27, 2020 Units:  Metric    English   Both
Daily Weekly Monthly Yearly Custom
  High: Low: Average:
Temperature: 19.8 °C 12.1 °C 15.5 °C
Dew Point: 16 °C 9.9 °C 12.9 °C
Humidity: 99% 70.6% 85%
Wind Speed: 7.1km/h 0km/h 0.7km/h
Wind Gust: 16.3km/h - -
Wind- - SSE
Pressure: 1012.9 hPa 1009.1 hPa -
Precipitation: 0.0 mm    
Historical Graphs
 
 
Tabular Data for October 27, 2020
Time Temperature Dew Point Pressure Wind Wind Speed Wind Gust Humidity Rainfall Rate (Hourly) solar
00:04 13.6 °C 11 °C 1011.5 hPa Calm     84.4% 0.0 mm 0 W/m2
00:09 13.4 °C 10.7 °C 1011.5 hPa Calm     83.8% 0.0 mm 0 W/m2
00:14 13.2 °C 10.5 °C 1011.9 hPa Calm     83.7% 0.0 mm 0 W/m2
00:19 13.2 °C 10.7 °C 1011.5 hPa Calm     84.4% 0.0 mm 0 W/m2
00:24 13.2 °C 10.6 °C 1011.9 hPa Calm     84% 0.0 mm 0 W/m2
00:29 13.2 °C 10.6 °C 1011.5 hPa Calm     84.2% 0.0 mm 0 W/m2
00:34 13.2 °C 10.7 °C 1011.5 hPa Calm     85% 0.0 mm 0 W/m2
00:39 13.2 °C 10.7 °C 1011.9 hPa Calm     84.4% 0.0 mm 0 W/m2
00:44 13.2 °C 10.5 °C 1011.9 hPa Calm     83.7% 0.0 mm 0 W/m2
00:49 13.2 °C 10.7 °C 1011.5 hPa Calm     85.1% 0.0 mm 0 W/m2
00:54 12.8 °C 10.5 °C 1011.5 hPa Calm     85.8% 0.0 mm 0 W/m2
00:59 12.9 °C 10.4 °C 1011.5 hPa Calm     84.7% 0.0 mm 0 W/m2
01:04 13 °C 10.4 °C 1011.9 hPa Calm     84.3% 0.0 mm 0 W/m2
01:09 13.2 °C 10.6 °C 1011.9 hPa Calm     84.7% 0.0 mm 0 W/m2
01:14 13.6 °C 11.1 °C 1011.9 hPa Calm     85.1% 0.0 mm 0 W/m2
01:19 13.6 °C 11.3 °C 1011.9 hPa Calm     85.9% 0.0 mm 0 W/m2
01:24 13.6 °C 11.3 °C 1011.9 hPa Calm     85.9% 0.0 mm 0 W/m2
01:29 13.6 °C 11.1 °C 1011.9 hPa Calm     85% 0.0 mm 0 W/m2
01:34 13.6 °C 11.3 °C 1011.9 hPa Calm     86% 0.0 mm 0 W/m2
01:39 13.6 °C 11.2 °C 1011.9 hPa Calm     85.6% 0.0 mm 0 W/m2
01:44 13.7 °C 11.4 °C 1011.9 hPa Calm     85.9% 0.0 mm 0 W/m2
01:49 13.6 °C 11.3 °C 1011.9 hPa Calm     86.2% 0.0 mm 0 W/m2
01:54 13.3 °C 11 °C 1011.9 hPa Calm     86% 0.0 mm 0 W/m2
01:59 13.3 °C 11 °C 1011.9 hPa Calm     86% 0.0 mm 0 W/m2
02:04 13.3 °C 10.8 °C 1011.9 hPa Calm     85% 0.0 mm 0 W/m2
02:09 13.3 °C 10.8 °C 1011.9 hPa Calm     84.4% 0.0 mm 0 W/m2
02:14 13.5 °C 10.9 °C 1011.9 hPa Calm     84.6% 0.0 mm 0 W/m2
02:19 13.5 °C 10.9 °C 1011.9 hPa Calm     84.6% 0.0 mm 0 W/m2
02:24 13.5 °C 11 °C 1011.9 hPa Calm     85% 0.0 mm 0 W/m2
02:29 13.5 °C 11 °C 1011.9 hPa Calm     84.9% 0.0 mm 0 W/m2
02:34 13.6 °C 11.1 °C 1011.9 hPa Calm     85% 0.0 mm 0 W/m2
02:39 13.5 °C 11 °C 1011.5 hPa Calm     85.1% 0.0 mm 0 W/m2
02:44 13.5 °C 11 °C 1011.5 hPa Calm     85.2% 0.0 mm 0 W/m2
02:49 13.5 °C 11 °C 1011.9 hPa Calm     85.2% 0.0 mm 0 W/m2
02:54 13.5 °C 11.2 °C 1011.9 hPa Calm     86.3% 0.0 mm 0 W/m2
02:59 13.4 °C 11.1 °C 1011.5 hPa Calm     86% 0.0 mm 0 W/m2
03:04 13.4 °C 11.1 °C 1011.5 hPa Calm     86.2% 0.0 mm 0 W/m2
03:09 13.4 °C 11.2 °C 1011.5 hPa Calm     86.4% 0.0 mm 0 W/m2
03:14 13.5 °C 11.2 °C 1011.5 hPa Calm     86% 0.0 mm 0 W/m2
03:19 13.4 °C 11.1 °C 1011.2 hPa Calm     85.8% 0.0 mm 0 W/m2
03:24 13.5 °C 11 °C 1011.2 hPa Calm     85% 0.0 mm 0 W/m2
03:29 13.5 °C 11 °C 1011.2 hPa Calm     85% 0.0 mm 0 W/m2
03:34 13.3 °C 11.1 °C 1011.2 hPa Calm     86.7% 0.0 mm 0 W/m2
03:39 13.2 °C 11.1 °C 1011.2 hPa Calm     86.8% 0.0 mm 0 W/m2
03:44 13.2 °C 10.9 °C 1011.2 hPa Calm     86% 0.0 mm 0 W/m2
03:49 13.2 °C 10.9 °C 1010.8 hPa Calm     85.9% 0.0 mm 0 W/m2
03:54 13.3 °C 10.8 °C 1010.8 hPa Calm     85.3% 0.0 mm 0 W/m2
03:59 13.3 °C 10.8 °C 1011.2 hPa Calm     85% 0.0 mm 0 W/m2
04:04 13.3 °C 10.8 °C 1011.2 hPa Calm     85.2% 0.0 mm 0 W/m2
04:09 13.3 °C 11.2 °C 1011.2 hPa Calm     86.9% 0.0 mm 0 W/m2
04:14 12.8 °C 10.8 °C 1011.2 hPa Calm     87% 0.0 mm 0 W/m2
04:19 12.7 °C 10.6 °C 1011.2 hPa Calm     87% 0.0 mm 0 W/m2
04:24 12.7 °C 10.7 °C 1010.8 hPa Calm     87.4% 0.0 mm 0 W/m2
04:29 12.7 °C 10.8 °C 1010.8 hPa Calm     88.2% 0.0 mm 0 W/m2
04:34 12.5 °C 10.6 °C 1010.8 hPa Calm     88.5% 0.0 mm 0 W/m2
04:39 12.4 °C 10.6 °C 1010.8 hPa Calm     88.6% 0.0 mm 0 W/m2
04:44 12.4 °C 10.5 °C 1010.8 hPa Calm     88% 0.0 mm 0 W/m2
04:49 12.4 °C 10.6 °C 1010.8 hPa Calm     88.8% 0.0 mm 0 W/m2
04:54 12.6 °C 10.6 °C 1011.2 hPa Calm     87.7% 0.0 mm 0 W/m2
04:59 12.6 °C 10.2 °C 1010.8 hPa Calm     85.7% 0.0 mm 0 W/m2
05:04 12.7 °C 10.2 °C 1011.2 hPa Calm     85% 0.0 mm 0 W/m2
05:09 12.8 °C 10.3 °C 1011.2 hPa Calm     84.5% 0.0 mm 0 W/m2
05:14 13.2 °C 10.5 °C 1011.2 hPa Calm     83.1% 0.0 mm 0 W/m2
05:19 13.4 °C 10.5 °C 1011.2 hPa Calm     82.7% 0.0 mm 0 W/m2
05:24 13.4 °C 10.5 °C 1010.8 hPa Calm     82.4% 0.0 mm 0 W/m2
05:29 13.3 °C 10.5 °C 1011.2 hPa Calm     82.9% 0.0 mm 0 W/m2
05:34 12.9 °C 10.3 °C 1011.2 hPa Calm     84.1% 0.0 mm 0 W/m2
05:39 12.7 °C 10.1 °C 1011.2 hPa Calm     84.1% 0.0 mm 0 W/m2
05:44 12.7 °C 10.3 °C 1011.2 hPa Calm     85.8% 0.0 mm 0 W/m2
05:49 12.6 °C 10.6 °C 1011.2 hPa Calm     87.7% 0.0 mm 0 W/m2
05:54 12.2 °C 10.2 °C 1011.2 hPa Calm     87.4% 0.0 mm 0 W/m2
05:59 12.1 °C 9.9 °C 1011.2 hPa Calm     86.3% 0.0 mm 0 W/m2
06:04 12.2 °C 9.9 °C 1011.2 hPa Calm     86% 0.0 mm 0 W/m2
06:09 12.3 °C 9.9 °C 1011.2 hPa Calm     85.4% 0.0 mm 0 W/m2
06:14 12.6 °C 10.3 °C 1011.2 hPa Calm     86% 0.0 mm 0 W/m2
06:19 12.8 °C 10.8 °C 1011.5 hPa Calm     87.2% 0.0 mm 0 W/m2
06:24 12.7 °C 10.9 °C 1011.2 hPa Calm     88.6% 0.0 mm 0 W/m2
06:29 12.6 °C 10.6 °C 1011.2 hPa Calm     87.2% 0.0 mm 0 W/m2
06:34 12.5 °C 10.3 °C 1011.2 hPa Calm     86.4% 0.0 mm 0 W/m2
06:39 12.5 °C 10.2 °C 1011.2 hPa Calm     86.1% 0.0 mm 0 W/m2
06:44 12.5 °C 10.3 °C 1011.5 hPa Calm     86.4% 0.0 mm 0 W/m2
06:49 12.5 °C 10.4 °C 1011.5 hPa Calm     86.8% 0.0 mm 0 W/m2
06:54 12.6 °C 10.4 °C 1011.5 hPa Calm     86.6% 0.0 mm 0 W/m2
06:59 12.6 °C 10.3 °C 1011.5 hPa Calm     86% 0.0 mm 0 W/m2
07:04 12.6 °C 10.4 °C 1011.5 hPa Calm     86.6% 0.0 mm 5 W/m2
07:09 12.6 °C 10.7 °C 1011.5 hPa Calm     87.8% 0.0 mm 8 W/m2
07:14 12.6 °C 10.5 °C 1011.5 hPa Calm     86.9% 0.0 mm 13 W/m2
07:19 12.6 °C 10.2 °C 1011.5 hPa Calm     85.8% 0.0 mm 19 W/m2
07:24 12.6 °C 10.1 °C 1011.5 hPa Calm     85% 0.0 mm 24 W/m2
07:29 12.7 °C 10.1 °C 1011.9 hPa Calm     84.1% 0.0 mm 30 W/m2
07:34 13.2 °C 10.4 °C 1011.9 hPa Calm     83.4% 0.0 mm 36 W/m2
07:39 13.5 °C 10.7 °C 1011.9 hPa Calm     82.8% 0.0 mm 42 W/m2
07:44 13.7 °C 10.9 °C 1012.2 hPa Calm     83.4% 0.0 mm 47 W/m2
07:49 13.8 °C 11 °C 1012.2 hPa Calm     83% 0.0 mm 52 W/m2
07:54 14.2 °C 11.4 °C 1012.2 hPa Calm     82.6% 0.0 mm 57 W/m2
07:59 14.7 °C 11.5 °C 1012.2 hPa Calm     80.9% 0.0 mm 62 W/m2
08:04 14.8 °C 11 °C 1012.5 hPa Calm     77.8% 0.0 mm 66 W/m2
08:09 15.1 °C 10.9 °C 1012.5 hPa Calm     76.1% 0.0 mm 71 W/m2
08:14 16 °C 11.6 °C 1012.5 hPa Calm     75.7% 0.0 mm 75 W/m2
08:19 16.7 °C 12.2 °C 1012.5 hPa Calm     74.8% 0.0 mm 80 W/m2
08:24 16.7 °C 12.4 °C 1012.5 hPa Calm     75.8% 0.0 mm 82 W/m2
08:29 16.7 °C 12.2 °C 1012.5 hPa Calm     74.9% 0.0 mm 85 W/m2
08:34 17.2 °C 12.7 °C 1012.5 hPa Calm     74.9% 0.0 mm 87 W/m2
08:39 17.7 °C 13 °C 1012.5 hPa Calm     73.9% 0.0 mm 90 W/m2
08:44 17.7 °C 13.3 °C 1012.9 hPa Calm     75.4% 0.0 mm 92 W/m2
08:49 17.7 °C 13.1 °C 1012.9 hPa Calm     74.6% 0.0 mm 94 W/m2
08:54 18 °C 13 °C 1012.5 hPa Calm     72.7% 0.0 mm 97 W/m2
08:59 18.6 °C 13.5 °C 1012.5 hPa Calm     71.9% 0.0 mm 98 W/m2
09:04 18.7 °C 13.2 °C 1012.9 hPa Calm     70.6% 0.0 mm 100 W/m2
09:09 18.7 °C 13.8 °C 1012.5 hPa Calm     73.3% 0.0 mm 102 W/m2
09:14 18.5 °C 13.8 °C 1012.5 hPa Calm     74.3% 0.0 mm 103 W/m2
09:19 17.9 °C 13.5 °C 1012.5 hPa Calm     75.3% 0.0 mm 104 W/m2
09:24 17.8 °C 14 °C 1012.5 hPa Calm     78.6% 0.0 mm 105 W/m2
09:29 17.5 °C 13.9 °C 1012.5 hPa Calm     79.6% 0.0 mm 107 W/m2
09:34 17.1 °C 13.5 °C 1012.5 hPa Calm     79.8% 0.0 mm 109 W/m2
09:39 16.8 °C 12.7 °C 1012.2 hPa Calm   4 km/h 76.8% 0.0 mm 113 W/m2
09:44 16.9 °C 13.3 °C 1012.2 hPa Calm   4 km/h 79.4% 0.0 mm 116 W/m2
09:49 16.9 °C 13.3 °C 1012.2 hPa Calm     79.2% 0.0 mm 119 W/m2
09:54 17.1 °C 13.5 °C 1012.2 hPa Calm   4 km/h 79.4% 0.0 mm 122 W/m2
09:59 17.2 °C 13.5 °C 1012.2 hPa Calm     79% 0.0 mm 126 W/m2
10:04 17.3 °C 13.6 °C 1012.2 hPa SE 0.7 km/h 7.9 km/h 78.7% 0.0 mm 131 W/m2
10:09 17.5 °C 13.5 °C 1012.2 hPa Calm   4 km/h 77.6% 0.0 mm 134 W/m2
10:14 17.8 °C 13.9 °C 1012.2 hPa Calm   4 km/h 77.8% 0.0 mm 138 W/m2
10:19 18.3 °C 14.2 °C 1012.2 hPa Calm   4 km/h 77% 0.0 mm 145 W/m2
10:24 18.3 °C 14.4 °C 1012.2 hPa SE 0.6 km/h 7.9 km/h 77.9% 0.0 mm 150 W/m2
10:29 18.4 °C 14.7 °C 1012.5 hPa Calm   7.9 km/h 79% 0.0 mm 155 W/m2
10:34 18.2 °C 14.8 °C 1012.2 hPa ESE 1.6 km/h 7.9 km/h 80.3% 0.0 mm 161 W/m2
10:39 17.8 °C 14.2 °C 1012.2 hPa SE 0.4 km/h 7.9 km/h 79.8% 0.0 mm 166 W/m2
10:44 17.8 °C 14.1 °C 1012.2 hPa SSE 0.7 km/h 4 km/h 78.9% 0.0 mm 173 W/m2
10:49 18 °C 14.3 °C 1012.2 hPa SE 1.2 km/h 7.9 km/h 79.1% 0.0 mm 179 W/m2
10:54 18.1 °C 14.4 °C 1012.2 hPa ESE 0.7 km/h 7.9 km/h 79.2% 0.0 mm 185 W/m2
10:59 18.3 °C 14.7 °C 1012.2 hPa SE 2.6 km/h 12.2 km/h 79.7% 0.0 mm 190 W/m2
11:04 18.2 °C 15.1 °C 1012.2 hPa ENE 0.8 km/h 12.2 km/h 81.8% 0.0 mm 196 W/m2
11:09 18 °C 14.9 °C 1012.2 hPa SE 1.5 km/h 12.2 km/h 81.8% 0.0 mm 203 W/m2
11:14 18 °C 14.4 °C 1012.2 hPa ESE 0.2 km/h 12.2 km/h 79.3% 0.0 mm 211 W/m2
11:19 18.4 °C 14.7 °C 1012.2 hPa SSE 1.5 km/h 7.9 km/h 79.3% 0.0 mm 221 W/m2
11:24 18.4 °C 14.7 °C 1012.2 hPa SE 0.7 km/h 7.9 km/h 78.8% 0.0 mm 227 W/m2
11:29 18.4 °C 14.5 °C 1012.2 hPa SE 0.6 km/h 7.9 km/h 78% 0.0 mm 235 W/m2
11:34 18.5 °C 14.6 °C 1011.9 hPa SE 1.7 km/h 7.9 km/h 77.9% 0.0 mm 244 W/m2
11:39 18.6 °C 14.4 °C 1011.9 hPa Calm   7.9 km/h 76.6% 0.0 mm 251 W/m2
11:44 18.6 °C 14.4 °C 1011.9 hPa SSE 1.6 km/h 7.9 km/h 76.3% 0.0 mm 261 W/m2
11:49 18.7 °C 14.6 °C 1011.9 hPa South 1.8 km/h 12.2 km/h 76.8% 0.0 mm 269 W/m2
11:54 18.8 °C 14.5 °C 1011.9 hPa SE 1.5 km/h 7.9 km/h 76.1% 0.0 mm 279 W/m2
11:59 19.2 °C 14.7 °C 1011.9 hPa SSE 1.1 km/h 7.9 km/h 75.2% 0.0 mm 289 W/m2
12:04 19.2 °C 15 °C 1011.5 hPa SSE 1.7 km/h 7.9 km/h 76.3% 0.0 mm 296 W/m2
12:09 19.2 °C 15 °C 1011.5 hPa ESE 2.6 km/h 12.2 km/h 76.6% 0.0 mm 303 W/m2
12:14 19.1 °C 15.3 °C 1011.2 hPa ESE 1.1 km/h 12.2 km/h 78.4% 0.0 mm 311 W/m2
12:19 18.9 °C 15 °C 1011.2 hPa SSE 1.2 km/h 12.2 km/h 77.9% 0.0 mm 317 W/m2
12:24 18.8 °C 14.9 °C 1011.5 hPa SSE 1.3 km/h 12.2 km/h 78.2% 0.0 mm 326 W/m2
12:29 18.8 °C 14.9 °C 1011.2 hPa East 1.1 km/h 12.2 km/h 77.8% 0.0 mm 333 W/m2
12:34 18.7 °C 15.3 °C 1010.8 hPa ENE 1.3 km/h 12.2 km/h 80.1% 0.0 mm 338 W/m2
12:39 18.1 °C 14.7 °C 1010.8 hPa SSE 2.8 km/h 12.2 km/h 80.4% 0.0 mm 348 W/m2
12:44 18.2 °C 14.6 °C 1010.8 hPa SE 1.2 km/h 12.2 km/h 79.6% 0.0 mm 355 W/m2
12:49 18.3 °C 14.6 °C 1010.8 hPa ESE 0.6 km/h 7.9 km/h 79.3% 0.0 mm 359 W/m2
12:54 18.4 °C 14.4 °C 1010.8 hPa SE 0.1 km/h 4 km/h 77.4% 0.0 mm 362 W/m2
12:59 19.3 °C 15.3 °C 1010.5 hPa South 0.2 km/h 7.9 km/h 77.8% 0.0 mm 363 W/m2
13:04 19.3 °C 15.1 °C 1010.5 hPa SSE 1 km/h 7.9 km/h 76.4% 0.0 mm 368 W/m2
13:09 19.3 °C 15.1 °C 1010.5 hPa SSE 0.4 km/h 4 km/h 76.4% 0.0 mm 377 W/m2
13:14 19.3 °C 15.1 °C 1010.5 hPa SE 1.4 km/h 7.9 km/h 76.7% 0.0 mm 380 W/m2
13:19 19.3 °C 15.2 °C 1010.2 hPa SE 0.2 km/h 7.9 km/h 76.8% 0.0 mm 380 W/m2
13:24 19.3 °C 15.2 °C 1010.2 hPa SSE 1.9 km/h 12.2 km/h 76.8% 0.0 mm 381 W/m2
13:29 19.3 °C 14.9 °C 1010.2 hPa SSE 1.1 km/h 12.2 km/h 75.3% 0.0 mm 380 W/m2
13:34 19.3 °C 14.7 °C 1010.2 hPa SSE 1 km/h 12.2 km/h 74.8% 0.0 mm 373 W/m2
13:39 19.3 °C 14.5 °C 1010.2 hPa SSE 0.4 km/h 4 km/h 74% 0.0 mm 347 W/m2
13:44 19.3 °C 14.9 °C 1010.2 hPa SE 1.2 km/h 12.2 km/h 75.6% 0.0 mm 361 W/m2
13:49 19.3 °C 15 °C 1009.8 hPa South 4.1 km/h 12.2 km/h 75.9% 0.0 mm 353 W/m2
13:54 19.3 °C 14.8 °C 1009.8 hPa South 4.7 km/h 16.3 km/h 75% 0.0 mm 348 W/m2
13:59 19.3 °C 15 °C 1009.8 hPa ESE 1.4 km/h 12.2 km/h 75.6% 0.0 mm 361 W/m2
14:04 19.3 °C 15.1 °C 1009.8 hPa SSE 3 km/h 16.3 km/h 76.2% 0.0 mm 352 W/m2
14:09 19.4 °C 15.2 °C 1009.8 hPa SSE 3.9 km/h 16.3 km/h 76.3% 0.0 mm 361 W/m2
14:14 19.4 °C 15.5 °C 1009.8 hPa SSE 5 km/h 16.3 km/h 78% 0.0 mm 354 W/m2
14:19 19.7 °C 15.8 °C 1009.8 hPa South 2.3 km/h 16.3 km/h 78% 0.0 mm 348 W/m2
14:24 19.8 °C 16 °C 1009.8 hPa SSE 6.5 km/h 16.3 km/h 78.6% 0.0 mm 342 W/m2
14:29 19.7 °C 16 °C 1009.8 hPa South 4.9 km/h 16.3 km/h 79% 0.0 mm 337 W/m2
14:34 19.6 °C 16 °C 1009.8 hPa SE 3.3 km/h 16.3 km/h 79.6% 0.0 mm 326 W/m2
14:39 19.4 °C 15.8 °C 1009.8 hPa SSE 4 km/h 12.2 km/h 79.6% 0.0 mm 312 W/m2
14:44 19.2 °C 15.6 °C 1009.8 hPa South 4.5 km/h 12.2 km/h 79.6% 0.0 mm 301 W/m2
14:49 19.3 °C 15.4 °C 1009.8 hPa South 1.4 km/h 12.2 km/h 77.8% 0.0 mm 307 W/m2
14:54 19.3 °C 15.3 °C 1009.8 hPa South 4.4 km/h 16.3 km/h 77.3% 0.0 mm 283 W/m2
14:59 18.8 °C 15.1 °C 1009.8 hPa SSE 7.1 km/h 16.3 km/h 79% 0.0 mm 223 W/m2
15:04 18.6 °C 14.9 °C 1009.8 hPa SSE 2.3 km/h 12.2 km/h 79% 0.0 mm 238 W/m2
15:09 18.6 °C 14.8 °C 1009.8 hPa SSE 4.3 km/h 12.2 km/h 78.6% 0.0 mm 280 W/m2
15:14 18.7 °C 14.9 °C 1009.8 hPa South 5.6 km/h 12.2 km/h 78.9% 0.0 mm 281 W/m2
15:19 18.8 °C 15.2 °C 1009.8 hPa SSW 4 km/h 12.2 km/h 79.2% 0.0 mm 240 W/m2
15:24 18.9 °C 15.1 °C 1009.8 hPa SSE 4.2 km/h 12.2 km/h 78.7% 0.0 mm 227 W/m2
15:29 18.9 °C 15.2 °C 1009.5 hPa South 1.6 km/h 7.9 km/h 79.1% 0.0 mm 228 W/m2
15:34 18.8 °C 15.3 °C 1009.5 hPa South 3.9 km/h 12.2 km/h 79.9% 0.0 mm 245 W/m2
15:39 18.6 °C 15.3 °C 1009.1 hPa SSE 2.9 km/h 12.2 km/h 80.6% 0.0 mm 236 W/m2
15:44 18.5 °C 15.3 °C 1009.5 hPa South 0.3 km/h 12.2 km/h 81.7% 0.0 mm 231 W/m2
15:49 18.6 °C 15.2 °C 1009.5 hPa South 1.6 km/h 7.9 km/h 80.4% 0.0 mm 223 W/m2
15:54 18.5 °C 15.3 °C 1009.5 hPa SSE 3.4 km/h 12.2 km/h 81.3% 0.0 mm 90 W/m2
15:59 17.9 °C 14.9 °C 1009.5 hPa South 0.2 km/h 4 km/h 82.6% 0.0 mm 85 W/m2
16:04 17.6 °C 14.7 °C 1009.5 hPa South 0.5 km/h 7.9 km/h 83% 0.0 mm 74 W/m2
16:09 17.6 °C 14.7 °C 1009.5 hPa South 0.6 km/h 7.9 km/h 83% 0.0 mm 74 W/m2
16:14 17.5 °C 14.6 °C 1009.5 hPa South 0.2 km/h 4 km/h 83% 0.0 mm 77 W/m2
16:19 17.4 °C 14.3 °C 1009.5 hPa Calm   4 km/h 82% 0.0 mm 78 W/m2
16:24 17.3 °C 14.2 °C 1009.1 hPa Calm     82% 0.0 mm 76 W/m2
16:29 17.3 °C 14.3 °C 1009.1 hPa Calm     82.2% 0.0 mm 66 W/m2
16:34 17.3 °C 14.4 °C 1009.1 hPa Calm     83% 0.0 mm 58 W/m2
16:39 17.1 °C 14.2 °C 1009.1 hPa Calm   4 km/h 83.1% 0.0 mm 51 W/m2
16:44 17 °C 14.3 °C 1009.1 hPa Calm   4 km/h 84% 0.0 mm 48 W/m2
16:49 17 °C 14.3 °C 1009.5 hPa Calm     84% 0.0 mm 42 W/m2
16:54 17 °C 14.4 °C 1009.1 hPa Calm     84.7% 0.0 mm 36 W/m2
16:59 16.8 °C 14.3 °C 1009.1 hPa Calm     85.8% 0.0 mm 33 W/m2
17:04 16.6 °C 14.5 °C 1009.1 hPa Calm     87.4% 0.0 mm 28 W/m2
17:09 16.6 °C 14.6 °C 1009.1 hPa Calm     88% 0.0 mm 21 W/m2
17:14 16.5 °C 14.6 °C 1009.5 hPa Calm     88.2% 0.0 mm 17 W/m2
17:19 16.4 °C 14.4 °C 1009.5 hPa South 0.3 km/h 4 km/h 88% 0.0 mm 11 W/m2
17:24 16.3 °C 14.2 °C 1009.5 hPa South 0.2 km/h 4 km/h 87.8% 0.0 mm 6 W/m2
17:29 16.3 °C 14.3 °C 1009.5 hPa Calm     88% 0.0 mm 3 W/m2
17:34 16.2 °C 14.2 °C 1009.5 hPa Calm     88% 0.0 mm 0 W/m2
17:39 16.2 °C 14.3 °C 1009.5 hPa Calm     88.8% 0.0 mm 0 W/m2
17:44 16.1 °C 14.3 °C 1009.5 hPa Calm     89.2% 0.0 mm 0 W/m2
17:49 16.1 °C 14.5 °C 1009.5 hPa Calm     90% 0.0 mm 0 W/m2
17:54 16.1 °C 14.5 °C 1009.5 hPa Calm     90.3% 0.0 mm 0 W/m2
17:59 15.9 °C 14.4 °C 1009.8 hPa Calm     91% 0.0 mm 0 W/m2
18:04 15.7 °C 14.3 °C 1009.8 hPa Calm     91.3% 0.0 mm 0 W/m2
18:09 15.6 °C 14.3 °C 1009.5 hPa South 0.2 km/h 4 km/h 92% 0.0 mm 0 W/m2
18:14 15.6 °C 14.3 °C 1009.8 hPa SSW 0.2 km/h 7.9 km/h 92% 0.0 mm 0 W/m2
18:19 15.6 °C 14.5 °C 1009.8 hPa SSW 2.7 km/h 12.2 km/h 92.8% 0.0 mm 0 W/m2
18:24 15.6 °C 14.5 °C 1009.8 hPa SSW 1 km/h 7.9 km/h 93.6% 0.0 mm 0 W/m2
18:29 15.5 °C 14.5 °C 1009.8 hPa SSE 0.3 km/h 7.9 km/h 94.2% 0.0 mm 0 W/m2
18:34 15.5 °C 14.7 °C 1009.8 hPa Calm   4 km/h 95% 0.0 mm 0 W/m2
18:39 15.2 °C 14.6 °C 1009.8 hPa Calm     96% 0.0 mm 0 W/m2
18:44 15 °C 14.5 °C 1009.8 hPa Calm     96.6% 0.0 mm 0 W/m2
18:49 15 °C 14.5 °C 1009.8 hPa Calm     97% 0.0 mm 0 W/m2
18:54 14.9 °C 14.3 °C 1010.2 hPa Calm     96.2% 0.0 mm 0 W/m2
18:59 14.8 °C 14.2 °C 1010.2 hPa Calm     96% 0.0 mm 0 W/m2
19:04 14.6 °C 13.8 °C 1010.2 hPa Calm     95% 0.0 mm 0 W/m2
19:09 14.6 °C 13.8 °C 1010.2 hPa Calm     95% 0.0 mm 0 W/m2
19:14 14.6 °C 13.7 °C 1010.2 hPa Calm     94.7% 0.0 mm 0 W/m2
19:19 14.6 °C 13.9 °C 1010.2 hPa Calm     95.6% 0.0 mm 0 W/m2
19:24 14.6 °C 14.1 °C 1010.2 hPa Calm     96.4% 0.0 mm 0 W/m2
19:29 14.6 °C 14 °C 1010.2 hPa SSW 1.2 km/h 7.9 km/h 96.1% 0.0 mm 0 W/m2
19:34 14.6 °C 13.6 °C 1010.2 hPa SSW 2.3 km/h 12.2 km/h 94.1% 0.0 mm 0 W/m2
19:39 14.8 °C 13.8 °C 1010.2 hPa SSW 1 km/h 7.9 km/h 93.9% 0.0 mm 0 W/m2
19:44 15 °C 14 °C 1010.2 hPa Calm   7.9 km/h 93.4% 0.0 mm 0 W/m2
19:49 15 °C 13.9 °C 1010.2 hPa Calm     93.1% 0.0 mm 0 W/m2
19:54 15 °C 14.1 °C 1010.2 hPa SSE 0.3 km/h 4 km/h 94.6% 0.0 mm 0 W/m2
19:59 14.7 °C 14.2 °C 1010.5 hPa South 0.1 km/h 4 km/h 97% 0.0 mm 0 W/m2
20:04 14.2 °C 13.6 °C 1010.5 hPa Calm   4 km/h 96.1% 0.0 mm 0 W/m2
20:09 14.2 °C 13.7 °C 1010.5 hPa SSW 2.7 km/h 12.2 km/h 97% 0.0 mm 0 W/m2
20:14 14.2 °C 13.7 °C 1010.5 hPa SSW 3.3 km/h 12.2 km/h 96.9% 0.0 mm 0 W/m2
20:19 14.3 °C 13.6 °C 1010.5 hPa SSW 2.2 km/h 12.2 km/h 95.8% 0.0 mm 0 W/m2
20:24 14.5 °C 13.3 °C 1010.5 hPa SW 1.1 km/h 7.9 km/h 93% 0.0 mm 0 W/m2
20:29 14.4 °C 13.1 °C 1010.5 hPa SW 0.4 km/h 4 km/h 92.2% 0.0 mm 0 W/m2
20:34 14.4 °C 13.3 °C 1010.5 hPa Calm   4 km/h 93.6% 0.0 mm 0 W/m2
20:39 14.2 °C 13.1 °C 1010.5 hPa SSW 0.2 km/h 4 km/h 93.2% 0.0 mm 0 W/m2
20:44 14 °C 12.7 °C 1010.5 hPa Calm   4 km/h 92% 0.0 mm 0 W/m2
20:49 14 °C 12.7 °C 1010.5 hPa Calm   4 km/h 91.4% 0.0 mm 0 W/m2
20:54 14 °C 12.7 °C 1010.5 hPa SW 0.5 km/h 4 km/h 91.5% 0.0 mm 0 W/m2
20:59 14 °C 12.2 °C 1010.8 hPa South 1.2 km/h 7.9 km/h 89.4% 0.0 mm 0 W/m2
21:04 14.1 °C 12 °C 1010.5 hPa SW 1 km/h 7.9 km/h 87.2% 0.0 mm 0 W/m2
21:09 14.1 °C 12.1 °C 1010.8 hPa Calm   4 km/h 87.7% 0.0 mm 0 W/m2
21:14 14 °C 12 °C 1010.8 hPa Calm     88.2% 0.0 mm 0 W/m2
21:19 13.9 °C 12 °C 1010.8 hPa Calm     88.8% 0.0 mm 0 W/m2
21:24 13.6 °C 11.4 °C 1010.8 hPa SSW 2 km/h 7.9 km/h 86.6% 0.0 mm 0 W/m2
21:29 13.7 °C 11.2 °C 1010.8 hPa SSW 1.9 km/h 7.9 km/h 85.2% 0.0 mm 0 W/m2
21:34 13.7 °C 11.3 °C 1011.2 hPa SSW 5 km/h 12.2 km/h 85.3% 0.0 mm 0 W/m2
21:39 13.8 °C 11.3 °C 1011.2 hPa South 2.7 km/h 12.2 km/h 84.9% 0.0 mm 0 W/m2
21:44 14.2 °C 11.7 °C 1011.2 hPa South 4.2 km/h 12.2 km/h 84.8% 0.0 mm 0 W/m2
21:49 14.2 °C 11.6 °C 1011.5 hPa South 1.6 km/h 12.2 km/h 84.4% 0.0 mm 0 W/m2
21:54 14.2 °C 11.7 °C 1011.5 hPa SSE 0.7 km/h 7.9 km/h 85% 0.0 mm 0 W/m2
21:59 14.2 °C 11.9 °C 1011.5 hPa South 0.4 km/h 7.9 km/h 86.2% 0.0 mm 0 W/m2
22:04 13.8 °C 11.7 °C 1011.5 hPa SSW 1.3 km/h 7.9 km/h 87% 0.0 mm 0 W/m2
22:09 13.8 °C 11.8 °C 1011.9 hPa South 2.1 km/h 16.3 km/h 87.6% 0.0 mm 0 W/m2
22:14 13.8 °C 12.2 °C 1011.9 hPa South 5.9 km/h 12.2 km/h 89.6% 0.0 mm 0 W/m2
22:19 13.9 °C 12.4 °C 1011.9 hPa South 4.4 km/h 12.2 km/h 90.4% 0.0 mm 0 W/m2
22:24 14.2 °C 13.3 °C 1011.9 hPa South 2.7 km/h 12.2 km/h 94.3% 0.0 mm 0 W/m2
22:29 14.2 °C 13.6 °C 1011.9 hPa South 2.7 km/h 7.9 km/h 96.3% 0.0 mm 0 W/m2
22:34 14.2 °C 14 °C 1011.9 hPa South 3.2 km/h 12.2 km/h 98.9% 0.0 mm 0 W/m2
22:39 14.2 °C 14 °C 1011.9 hPa SSW 0.9 km/h 7.9 km/h 99% 0.0 mm 0 W/m2
22:44 14.2 °C 14 °C 1011.9 hPa SSW 1.7 km/h 7.9 km/h 99% 0.0 mm 0 W/m2
22:49 14.1 °C 13.9 °C 1011.9 hPa Calm   7.9 km/h 99% 0.0 mm 0 W/m2
22:54 14.1 °C 13.9 °C 1011.5 hPa South 0.7 km/h 7.9 km/h 99% 0.0 mm 0 W/m2
22:59 14.1 °C 13.9 °C 1011.9 hPa SSE 0.9 km/h 7.9 km/h 99% 0.0 mm 0 W/m2
23:04 14 °C 13.8 °C 1011.9 hPa South 0.4 km/h 7.9 km/h 99% 0.0 mm 0 W/m2
23:09 14 °C 13.8 °C 1011.9 hPa South 0.7 km/h 7.9 km/h 99% 0.0 mm 0 W/m2
23:14 14 °C 13.8 °C 1011.9 hPa South 0.7 km/h 12.2 km/h 99% 0.0 mm 0 W/m2
23:19 14 °C 13.8 °C 1011.9 hPa SSE 0.2 km/h 12.2 km/h 99% 0.0 mm 0 W/m2
23:24 14 °C 13.8 °C 1011.9 hPa South 0.6 km/h 7.9 km/h 99% 0.0 mm 0 W/m2
23:29 13.9 °C 13.7 °C 1011.9 hPa Calm     99% 0.0 mm 0 W/m2
23:34 13.9 °C 13.7 °C 1011.9 hPa Calm     99% 0.0 mm 0 W/m2
23:39 13.9 °C 13.7 °C 1011.9 hPa South 0.3 km/h 4 km/h 99% 0.0 mm 0 W/m2
23:44 13.8 °C 13.7 °C 1011.5 hPa Calm     99% 0.0 mm 0 W/m2
23:49 13.8 °C 13.6 °C 1011.9 hPa Calm   4 km/h 99% 0.0 mm 0 W/m2
23:54 13.9 °C 13.7 °C 1011.9 hPa SSW 0.6 km/h 7.9 km/h 99% 0.0 mm 0 W/m2
23:59 13.9 °C 13.7 °C 1011.5 hPa Calm   4 km/h 99% 0.0 mm 0 W/m2
Juneau County Weather
Compliments of Weather Underground - 2 mb